createdAt,value
2023-09-25T00:01:13.978Z,11.29
2023-09-25T00:03:40.697Z,11.42
2023-09-25T00:06:07.297Z,11.42
2023-09-25T00:09:12.739Z,11.25
2023-09-25T00:11:39.254Z,11.17
2023-09-25T00:14:06.292Z,11.06
2023-09-25T00:16:33.023Z,10.93
2023-09-25T00:18:59.579Z,10.84
2023-09-25T00:21:28.227Z,11.18
2023-09-25T00:23:54.758Z,11.04
2023-09-25T00:26:21.220Z,10.97
2023-09-25T00:28:50.286Z,11.01
2023-09-25T00:31:17.290Z,10.95
2023-09-25T00:33:43.840Z,10.90
2023-09-25T00:36:10.406Z,10.85
2023-09-25T00:38:36.860Z,10.78
2023-09-25T00:41:03.393Z,10.67
2023-09-25T00:43:32.381Z,10.61
2023-09-25T00:45:59.926Z,10.57
2023-09-25T00:48:30.954Z,10.49
2023-09-25T00:50:59.931Z,10.33
2023-09-25T00:53:27.793Z,10.26
2023-09-25T00:55:55.942Z,10.12
2023-09-25T00:58:25.934Z,9.99
2023-09-25T01:00:54.193Z,9.91
2023-09-25T01:03:20.919Z,9.72
2023-09-25T01:05:48.582Z,9.60
2023-09-25T01:08:15.114Z,9.52
2023-09-25T01:10:45.529Z,9.42
2023-09-25T01:13:12.380Z,9.28
2023-09-25T01:15:40.150Z,9.21
2023-09-25T01:18:07.459Z,9.05
2023-09-25T01:20:33.955Z,9.01
2023-09-25T01:23:00.715Z,8.90
2023-09-25T01:25:27.192Z,8.87
2023-09-25T01:27:56.236Z,8.83
2023-09-25T01:30:22.914Z,8.75
2023-09-25T01:32:51.402Z,8.70
2023-09-25T01:35:24.802Z,8.65
2023-09-25T01:37:58.915Z,8.63
2023-09-25T01:40:28.570Z,8.60
2023-09-25T01:42:55.059Z,8.53
2023-09-25T01:45:24.504Z,8.52
2023-09-25T01:47:53.366Z,8.46
2023-09-25T01:50:23.068Z,8.48
2023-09-25T01:52:53.904Z,8.45
2023-09-25T01:55:20.776Z,8.42
2023-09-25T01:57:47.659Z,8.40
2023-09-25T02:00:14.946Z,8.36
2023-09-25T02:02:44.200Z,8.37
2023-09-25T02:05:16.824Z,8.38
2023-09-25T02:07:43.772Z,8.37
2023-09-25T02:10:10.560Z,8.37
2023-09-25T02:12:39.556Z,8.37
2023-09-25T02:15:11.826Z,8.37
2023-09-25T02:17:38.411Z,8.38
2023-09-25T02:20:32.216Z,8.35
2023-09-25T02:22:58.734Z,8.30
2023-09-25T02:25:25.130Z,8.30
2023-09-25T02:27:54.100Z,8.25
2023-09-25T02:30:20.603Z,8.26
2023-09-25T02:32:49.641Z,8.28
2023-09-25T02:35:16.436Z,8.34
2023-09-25T02:37:45.904Z,8.41
2023-09-25T02:40:16.338Z,8.56
2023-09-25T02:42:44.032Z,8.90
2023-09-25T02:45:13.717Z,8.87
2023-09-25T02:47:40.237Z,8.87
2023-09-25T02:50:10.607Z,8.93
2023-09-25T02:52:37.548Z,8.92
2023-09-25T02:55:04.909Z,8.96
2023-09-25T02:57:31.477Z,8.94
2023-09-25T03:00:00.291Z,9.00
2023-09-25T03:02:27.309Z,9.06
2023-09-25T03:04:56.310Z,9.29
2023-09-25T03:07:23.009Z,9.20
2023-09-25T03:09:51.923Z,9.27
2023-09-25T03:12:18.465Z,9.18
2023-09-25T03:14:44.874Z,9.56
2023-09-25T03:17:11.274Z,9.36
2023-09-25T03:19:39.470Z,9.30
2023-09-25T03:22:05.986Z,9.27
2023-09-25T03:24:32.430Z,9.21
2023-09-25T03:26:59.000Z,9.18
2023-09-25T03:29:25.437Z,9.14
2023-09-25T03:31:51.942Z,9.12
2023-09-25T03:34:18.919Z,9.05
2023-09-25T03:36:47.677Z,9.02
2023-09-25T03:39:14.155Z,8.94
2023-09-25T03:41:40.671Z,8.87
2023-09-25T03:44:07.097Z,8.75
2023-09-25T03:46:33.657Z,8.63
2023-09-25T03:49:06.699Z,8.54
2023-09-25T03:51:34.248Z,8.41
2023-09-25T03:54:01.511Z,8.28
2023-09-25T03:56:46.690Z,8.26
2023-09-25T03:59:13.349Z,8.23
2023-09-25T04:01:39.892Z,8.15
2023-09-25T04:04:08.110Z,8.11
2023-09-25T04:06:35.307Z,8.10
2023-09-25T04:09:01.873Z,8.05
2023-09-25T04:11:28.647Z,8.02
2023-09-25T04:13:55.711Z,7.95
2023-09-25T04:16:23.649Z,7.90
2023-09-25T04:18:50.683Z,7.88
2023-09-25T04:21:18.678Z,7.75
2023-09-25T04:23:45.309Z,7.73
2023-09-25T04:26:13.275Z,7.71
2023-09-25T04:28:41.508Z,7.59
2023-09-25T04:31:08.358Z,7.63
2023-09-25T04:33:40.099Z,7.62
2023-09-25T04:36:14.714Z,7.63
2023-09-25T04:38:44.759Z,7.63
2023-09-25T04:41:11.237Z,7.61
2023-09-25T04:43:38.232Z,7.61
2023-09-25T04:46:04.809Z,7.57
2023-09-25T04:48:31.553Z,7.57
2023-09-25T04:50:58.570Z,7.56
2023-09-25T04:53:25.099Z,7.56
2023-09-25T04:55:51.607Z,7.59
2023-09-25T04:58:18.175Z,7.57
2023-09-25T05:00:45.763Z,7.55
2023-09-25T05:03:17.380Z,7.53
2023-09-25T05:05:43.864Z,7.50
2023-09-25T05:08:12.709Z,7.50
2023-09-25T05:10:39.114Z,7.49
2023-09-25T05:13:05.617Z,7.48
2023-09-25T05:15:32.147Z,7.46
2023-09-25T05:17:58.880Z,7.47
2023-09-25T05:20:27.598Z,7.49
2023-09-25T05:22:59.025Z,7.50
2023-09-25T05:25:25.822Z,7.51
2023-09-25T05:27:55.300Z,7.51
2023-09-25T05:30:22.180Z,7.55
2023-09-25T05:32:50.927Z,7.56
2023-09-25T05:35:18.576Z,7.57
2023-09-25T05:37:47.018Z,7.55
2023-09-25T05:40:15.063Z,7.54
2023-09-25T05:42:46.559Z,7.55
2023-09-25T05:45:15.361Z,7.59
2023-09-25T05:47:42.412Z,7.60
2023-09-25T05:50:09.361Z,7.61
2023-09-25T05:52:39.122Z,7.60
2023-09-25T05:55:10.257Z,7.64
2023-09-25T05:57:39.443Z,7.66
2023-09-25T06:00:14.072Z,7.69
2023-09-25T06:02:41.909Z,7.72
2023-09-25T06:05:09.779Z,7.75
2023-09-25T06:07:38.907Z,7.78
2023-09-25T06:10:09.374Z,7.83
2023-09-25T06:12:36.955Z,7.90
2023-09-25T06:15:10.480Z,7.94
2023-09-25T06:17:41.500Z,8.00
2023-09-25T06:20:15.510Z,8.11
2023-09-25T06:22:44.972Z,8.18
2023-09-25T06:25:19.725Z,8.33
2023-09-25T06:27:49.847Z,8.35
2023-09-25T06:30:20.781Z,8.44
2023-09-25T06:32:47.615Z,8.52
2023-09-25T06:35:14.361Z,8.65
2023-09-25T06:37:43.499Z,8.76
2023-09-25T06:40:14.072Z,8.91
2023-09-25T06:42:43.337Z,9.06
2023-09-25T06:45:10.299Z,9.17
2023-09-25T06:47:39.130Z,9.28
2023-09-25T06:50:08.335Z,9.40
2023-09-25T06:52:35.056Z,9.51
2023-09-25T06:55:01.470Z,9.62
2023-09-25T06:57:28.107Z,9.76
2023-09-25T06:59:59.357Z,9.86
2023-09-25T07:02:26.597Z,10.06
2023-09-25T07:04:53.267Z,10.20
2023-09-25T07:07:21.948Z,10.28
2023-09-25T07:09:48.936Z,10.38
2023-09-25T07:12:17.079Z,10.49
2023-09-25T07:14:54.438Z,10.54
2023-09-25T07:17:23.375Z,10.68
2023-09-25T07:19:51.766Z,10.93
2023-09-25T07:22:21.904Z,10.98
2023-09-25T07:24:49.068Z,11.13
2023-09-25T07:27:16.357Z,11.33
2023-09-25T07:29:46.764Z,11.37
2023-09-25T07:32:15.248Z,11.58
2023-09-25T07:34:46.467Z,11.70
2023-09-25T07:37:13.805Z,11.75
2023-09-25T07:39:41.270Z,11.85
2023-09-25T07:42:08.452Z,11.93
2023-09-25T07:44:36.146Z,12.02
2023-09-25T07:47:08.197Z,12.15
2023-09-25T07:49:41.382Z,12.23
2023-09-25T07:52:21.152Z,12.39
2023-09-25T07:54:52.257Z,12.54
2023-09-25T07:57:20.976Z,12.58
2023-09-25T07:59:48.284Z,12.63
2023-09-25T08:02:19.429Z,12.64
2023-09-25T08:04:49.649Z,12.81
2023-09-25T08:07:16.206Z,12.92
2023-09-25T08:09:45.490Z,12.98
2023-09-25T08:12:14.074Z,13.07
2023-09-25T08:14:40.481Z,13.13
2023-09-25T08:17:09.612Z,13.20
2023-09-25T08:19:36.095Z,13.21
2023-09-25T08:22:02.513Z,13.25
2023-09-25T08:24:29.026Z,13.31
2023-09-25T08:26:58.222Z,13.41
2023-09-25T08:29:25.182Z,13.44
2023-09-25T08:31:52.741Z,13.51
2023-09-25T08:34:22.703Z,13.59
2023-09-25T08:36:49.107Z,13.72
2023-09-25T08:39:15.903Z,13.82
2023-09-25T08:41:44.119Z,13.89
2023-09-25T08:44:11.782Z,13.89
2023-09-25T08:46:38.676Z,14.10
2023-09-25T08:49:08.114Z,14.22
2023-09-25T08:51:40.253Z,14.43
2023-09-25T08:54:08.105Z,14.62
2023-09-25T08:56:34.803Z,14.59
2023-09-25T08:59:03.449Z,14.76
2023-09-25T09:01:30.582Z,14.86
2023-09-25T09:03:57.382Z,15.03
2023-09-25T09:06:24.164Z,15.12
2023-09-25T09:08:52.580Z,15.15
2023-09-25T09:11:20.709Z,15.61
2023-09-25T09:13:50.739Z,15.99
2023-09-25T09:16:25.528Z,15.99
2023-09-25T09:19:07.510Z,15.96
2023-09-25T09:21:34.440Z,16.06
2023-09-25T09:24:01.040Z,16.20
2023-09-25T09:26:27.506Z,16.33
2023-09-25T09:28:55.436Z,16.46
2023-09-25T09:31:22.331Z,16.73
2023-09-25T09:33:49.317Z,16.88
2023-09-25T09:36:16.010Z,16.84
2023-09-25T09:38:43.882Z,17.03
2023-09-25T09:41:14.364Z,17.22
2023-09-25T09:43:42.477Z,17.21
2023-09-25T09:46:13.443Z,17.29
2023-09-25T09:48:41.500Z,17.32
2023-09-25T09:51:17.437Z,17.53
2023-09-25T09:53:44.236Z,17.54
2023-09-25T09:56:17.658Z,17.60
2023-09-25T09:58:47.937Z,17.71
2023-09-25T10:01:18.191Z,17.73
2023-09-25T10:03:45.028Z,17.77
2023-09-25T10:06:12.377Z,17.73
2023-09-25T10:08:38.874Z,17.81
2023-09-25T10:11:24.321Z,17.79
2023-09-25T10:13:54.909Z,17.75
2023-09-25T10:16:21.524Z,17.94
2023-09-25T10:18:53.184Z,18.01
2023-09-25T10:21:19.652Z,18.07
2023-09-25T10:23:53.144Z,18.06
2023-09-25T10:26:22.922Z,18.24
2023-09-25T10:29:20.938Z,18.33
2023-09-25T10:31:48.226Z,18.23
2023-09-25T10:34:17.678Z,18.23
2023-09-25T10:36:48.796Z,18.25
2023-09-25T10:39:19.039Z,18.24
2023-09-25T10:41:47.164Z,18.29
2023-09-25T10:44:14.556Z,18.31
2023-09-25T10:46:41.846Z,18.36
2023-09-25T10:49:11.044Z,18.45
2023-09-25T10:51:37.523Z,18.61
2023-09-25T10:54:06.390Z,18.78
2023-09-25T10:56:33.709Z,18.74
2023-09-25T10:59:01.761Z,18.89
2023-09-25T11:01:30.382Z,18.80
2023-09-25T11:04:00.649Z,18.71
2023-09-25T11:06:28.427Z,18.85
2023-09-25T11:09:15.373Z,18.75
2023-09-25T11:11:42.405Z,18.87
2023-09-25T11:14:09.207Z,18.96
2023-09-25T11:16:35.922Z,19.01
2023-09-25T11:19:15.440Z,19.09
2023-09-25T11:21:51.470Z,19.27
2023-09-25T11:24:18.873Z,19.38
2023-09-25T11:26:45.641Z,19.59
2023-09-25T11:29:13.524Z,19.53
2023-09-25T11:34:10.756Z,19.88
2023-09-25T11:36:44.979Z,19.75
2023-09-25T11:39:17.733Z,19.94
2023-09-25T11:41:45.332Z,20.27
2023-09-25T11:44:12.037Z,20.47
2023-09-25T11:46:41.647Z,20.36
2023-09-25T11:49:08.229Z,20.40
2023-09-25T11:51:34.849Z,20.36
2023-09-25T11:54:03.236Z,20.70
2023-09-25T11:56:35.062Z,20.79
2023-09-25T11:59:01.981Z,20.67
2023-09-25T12:01:29.246Z,20.54
2023-09-25T12:03:56.451Z,20.57
2023-09-25T12:06:25.603Z,20.79
2023-09-25T12:08:52.446Z,20.69
2023-09-25T12:11:22.632Z,20.64
2023-09-25T12:13:51.831Z,20.66
2023-09-25T12:16:19.174Z,20.70
2023-09-25T12:18:46.321Z,20.81
2023-09-25T12:21:13.022Z,20.67
2023-09-25T12:23:39.832Z,21.09
2023-09-25T12:26:06.410Z,21.58
2023-09-25T12:28:34.901Z,21.07
2023-09-25T12:31:01.689Z,21.28
2023-09-25T12:33:31.381Z,21.53
2023-09-25T12:36:04.193Z,21.71
2023-09-25T12:38:30.839Z,21.49
2023-09-25T12:40:57.896Z,21.67
2023-09-25T12:43:24.576Z,21.60
2023-09-25T12:45:53.447Z,21.34
2023-09-25T12:48:25.376Z,22.13
2023-09-25T12:50:52.333Z,22.07
2023-09-25T12:53:19.979Z,21.99
2023-09-25T12:55:46.955Z,21.87
2023-09-25T12:58:13.528Z,21.69
2023-09-25T13:00:40.109Z,21.26
2023-09-25T13:03:07.524Z,21.48
2023-09-25T13:05:34.606Z,21.59
2023-09-25T13:08:01.303Z,21.66
2023-09-25T13:10:29.143Z,21.46
2023-09-25T13:12:55.707Z,21.13
2023-09-25T13:15:22.478Z,20.96
2023-09-25T13:17:51.203Z,21.10
2023-09-25T13:20:17.889Z,21.04
2023-09-25T13:22:44.415Z,20.89
2023-09-25T13:25:11.276Z,20.79
2023-09-25T13:27:38.266Z,20.73
2023-09-25T13:30:12.495Z,20.70
2023-09-25T13:32:39.139Z,20.74
2023-09-25T13:35:05.877Z,20.69
2023-09-25T13:37:33.492Z,20.72
2023-09-25T13:40:00.538Z,20.69
2023-09-25T13:42:30.624Z,20.62
2023-09-25T13:44:57.305Z,20.58
2023-09-25T13:47:23.856Z,20.59
2023-09-25T13:49:51.185Z,20.63
2023-09-25T13:52:17.857Z,20.63
2023-09-25T13:54:45.161Z,20.66
2023-09-25T13:57:13.803Z,20.61
2023-09-25T13:59:40.989Z,20.62
2023-09-25T14:02:07.828Z,20.62
2023-09-25T14:04:34.313Z,20.53
2023-09-25T14:07:01.003Z,20.62
2023-09-25T14:09:27.538Z,20.55
2023-09-25T14:11:56.669Z,20.55
2023-09-25T14:14:40.331Z,20.60
2023-09-25T14:17:07.398Z,20.66
2023-09-25T14:19:33.817Z,20.57
2023-09-25T14:22:05.505Z,20.56
2023-09-25T14:24:37.530Z,20.61
2023-09-25T14:27:04.075Z,20.68
2023-09-25T14:29:32.153Z,20.59
2023-09-25T14:31:59.450Z,20.59
2023-09-25T14:34:28.222Z,20.61
2023-09-25T14:36:54.792Z,20.49
2023-09-25T14:39:25.359Z,20.58
2023-09-25T14:41:52.285Z,20.56
2023-09-25T14:44:18.749Z,20.54
2023-09-25T14:46:45.174Z,20.55
2023-09-25T14:49:12.818Z,20.45
2023-09-25T14:51:41.642Z,20.38
2023-09-25T14:54:13.019Z,20.30
2023-09-25T14:56:39.431Z,20.32
2023-09-25T14:59:06.257Z,20.34
2023-09-25T15:01:32.974Z,20.37
2023-09-25T15:03:59.484Z,20.34
2023-09-25T15:06:26.628Z,20.21
2023-09-25T15:08:54.131Z,20.25
2023-09-25T15:11:23.152Z,20.29
2023-09-25T15:13:50.087Z,20.38
2023-09-25T15:16:16.926Z,20.42
2023-09-25T15:18:44.277Z,20.31
2023-09-25T15:21:11.623Z,20.33
2023-09-25T15:23:41.237Z,20.31
2023-09-25T15:26:07.626Z,20.36
2023-09-25T15:28:38.934Z,20.43
2023-09-25T15:31:05.966Z,20.45
2023-09-25T15:33:32.483Z,20.38
2023-09-25T15:35:59.145Z,20.38
2023-09-25T15:38:25.622Z,20.30
2023-09-25T15:40:52.071Z,20.30
2023-09-25T15:43:18.669Z,20.28
2023-09-25T15:45:45.492Z,20.35
2023-09-25T15:48:12.063Z,20.22
2023-09-25T15:50:41.309Z,20.23
2023-09-25T15:53:07.730Z,20.38
2023-09-25T15:55:34.243Z,20.29
2023-09-25T15:58:00.872Z,20.28
2023-09-25T16:00:28.573Z,20.29
2023-09-25T16:02:55.072Z,20.29
2023-09-25T16:05:21.660Z,20.20
2023-09-25T16:07:50.791Z,20.23
2023-09-25T16:10:19.610Z,20.20
2023-09-25T16:12:46.189Z,20.22
2023-09-25T16:15:14.914Z,20.21
2023-09-25T16:17:41.905Z,20.22
2023-09-25T16:20:08.617Z,20.23
2023-09-25T16:22:35.164Z,20.18
2023-09-25T16:25:01.797Z,20.08
2023-09-25T16:27:33.302Z,19.96
2023-09-25T16:30:00.121Z,20.10
2023-09-25T16:32:26.857Z,20.04
2023-09-25T16:34:53.568Z,20.07
2023-09-25T16:37:22.013Z,20.04
2023-09-25T16:39:48.426Z,20.04
2023-09-25T16:42:15.005Z,20.01
2023-09-25T16:44:41.482Z,19.95
2023-09-25T16:47:08.045Z,19.92
2023-09-25T16:49:34.779Z,19.75
2023-09-25T16:52:01.244Z,19.51
2023-09-25T16:54:27.731Z,19.34
2023-09-25T16:56:56.531Z,19.17
2023-09-25T16:59:22.958Z,19.03
2023-09-25T17:01:49.477Z,18.87
2023-09-25T17:04:18.454Z,18.65
2023-09-25T17:06:44.897Z,18.47
2023-09-25T17:09:13.704Z,18.31
2023-09-25T17:11:40.179Z,18.19
2023-09-25T17:14:06.819Z,18.02
2023-09-25T17:16:33.497Z,17.84
2023-09-25T17:19:00.304Z,17.74
2023-09-25T17:21:27.548Z,17.54
2023-09-25T17:23:54.327Z,17.37
2023-09-25T17:26:21.786Z,17.34
2023-09-25T17:28:55.005Z,17.18
2023-09-25T17:31:23.268Z,17.04
2023-09-25T17:33:52.407Z,16.95
2023-09-25T17:36:21.784Z,16.86
2023-09-25T17:38:48.442Z,16.80
2023-09-25T17:41:15.337Z,16.63
2023-09-25T17:43:42.004Z,16.58
2023-09-25T17:46:11.378Z,16.50
2023-09-25T17:48:43.696Z,16.38
2023-09-25T17:51:10.231Z,16.29
2023-09-25T17:53:36.655Z,16.24
2023-09-25T17:56:03.274Z,16.15
2023-09-25T17:58:31.808Z,16.11
2023-09-25T18:00:59.984Z,16.03
2023-09-25T18:03:27.986Z,15.92
2023-09-25T18:05:57.090Z,15.86
2023-09-25T18:08:25.982Z,15.79
2023-09-25T18:10:52.429Z,15.76
2023-09-25T18:13:22.432Z,15.73
2023-09-25T18:15:52.859Z,15.68
2023-09-25T18:18:19.679Z,15.60
2023-09-25T18:20:46.344Z,15.56
2023-09-25T18:23:12.891Z,15.52
2023-09-25T18:25:42.221Z,15.48
2023-09-25T18:28:08.919Z,15.42
2023-09-25T18:30:36.535Z,15.37
2023-09-25T18:33:04.388Z,15.28
2023-09-25T18:35:32.878Z,15.23
2023-09-25T18:37:59.382Z,15.17
2023-09-25T18:40:28.583Z,15.11
2023-09-25T18:42:56.511Z,15.06
2023-09-25T18:45:24.123Z,15.01
2023-09-25T18:47:50.615Z,14.92
2023-09-25T18:50:17.131Z,14.89
2023-09-25T18:52:43.538Z,14.83
2023-09-25T18:55:10.241Z,14.74
2023-09-25T18:57:36.796Z,14.70
2023-09-25T19:00:03.981Z,14.62
2023-09-25T19:02:30.952Z,14.57
2023-09-25T19:04:57.433Z,14.52
2023-09-25T19:07:23.983Z,14.48
2023-09-25T19:09:53.655Z,14.47
2023-09-25T19:12:20.295Z,14.42
2023-09-25T19:14:47.437Z,14.38
2023-09-25T19:17:16.000Z,14.33
2023-09-25T19:19:42.492Z,14.27
2023-09-25T19:22:11.186Z,14.22
2023-09-25T19:24:37.651Z,14.21
2023-09-25T19:27:05.515Z,14.15
2023-09-25T19:29:32.170Z,14.11
2023-09-25T19:31:58.768Z,14.07
2023-09-25T19:34:25.436Z,14.04
2023-09-25T19:36:51.994Z,13.94
2023-09-25T19:39:20.760Z,13.90
2023-09-25T19:41:47.153Z,13.89
2023-09-25T19:44:13.999Z,13.85
2023-09-25T19:46:40.713Z,13.84
2023-09-25T19:49:07.489Z,13.78
2023-09-25T19:51:36.439Z,13.70
2023-09-25T19:54:03.656Z,13.71
2023-09-25T19:56:30.154Z,13.65
2023-09-25T19:58:56.558Z,13.62
2023-09-25T20:01:23.164Z,13.59
2023-09-25T20:03:49.949Z,13.59
2023-09-25T20:06:16.702Z,13.52
2023-09-25T20:08:43.104Z,13.46
2023-09-25T20:11:09.562Z,13.44
2023-09-25T20:13:37.456Z,13.41
2023-09-25T20:16:06.313Z,13.38
2023-09-25T20:18:33.244Z,13.31
2023-09-25T20:21:02.197Z,13.30
2023-09-25T20:23:28.675Z,13.25
2023-09-25T20:25:55.615Z,13.23
2023-09-25T20:28:24.338Z,13.14
2023-09-25T20:30:53.358Z,13.13
2023-09-25T20:33:19.901Z,13.09
2023-09-25T20:35:49.477Z,13.06
2023-09-25T20:38:15.996Z,13.06
2023-09-25T20:40:42.433Z,13.05
2023-09-25T20:43:08.980Z,13.04
2023-09-25T20:45:38.237Z,13.03
2023-09-25T20:48:05.241Z,12.97
2023-09-25T20:50:31.896Z,12.95
2023-09-25T20:53:04.082Z,12.89
2023-09-25T20:55:31.378Z,12.85
2023-09-25T20:58:01.190Z,12.81
2023-09-25T21:00:28.773Z,12.71
2023-09-25T21:02:55.810Z,12.72
2023-09-25T21:05:22.312Z,12.67
2023-09-25T21:07:54.547Z,12.61
2023-09-25T21:10:21.643Z,12.57
2023-09-25T21:12:50.497Z,12.56
2023-09-25T21:15:17.210Z,12.51
2023-09-25T21:17:43.831Z,12.48
2023-09-25T21:20:11.677Z,12.44
2023-09-25T21:22:39.376Z,12.42
2023-09-25T21:25:12.107Z,12.40
2023-09-25T21:27:38.762Z,12.33
2023-09-25T21:30:06.288Z,12.26
2023-09-25T21:32:32.802Z,12.24
2023-09-25T21:35:01.298Z,12.18
2023-09-25T21:37:27.786Z,12.14
2023-09-25T21:39:54.371Z,12.12
2023-09-25T21:42:21.800Z,12.06
2023-09-25T21:44:48.357Z,11.98
2023-09-25T21:47:15.269Z,11.94
2023-09-25T21:49:41.895Z,11.86
2023-09-25T21:52:08.314Z,11.86
2023-09-25T21:54:34.945Z,11.81
2023-09-25T21:57:01.513Z,11.74
2023-09-25T21:59:28.628Z,11.67
2023-09-25T22:01:55.157Z,11.63
2023-09-25T22:04:23.848Z,11.63
2023-09-25T22:06:50.638Z,11.54
2023-09-25T22:09:17.350Z,11.54
2023-09-25T22:11:43.907Z,11.49
2023-09-25T22:14:10.386Z,11.47
2023-09-25T22:16:36.964Z,11.49
2023-09-25T22:19:03.790Z,11.46
2023-09-25T22:21:30.395Z,11.42
2023-09-25T22:23:56.882Z,11.40
2023-09-25T22:26:23.365Z,11.36
2023-09-25T22:28:49.778Z,11.35
2023-09-25T22:31:18.455Z,11.34
2023-09-25T22:33:46.154Z,11.27
2023-09-25T22:36:12.785Z,11.25
2023-09-25T22:38:39.628Z,11.22
2023-09-25T22:41:07.026Z,11.20
2023-09-25T22:43:38.945Z,11.18
2023-09-25T22:46:07.573Z,11.16
2023-09-25T22:48:34.433Z,11.12
2023-09-25T22:51:01.415Z,11.06
2023-09-25T22:53:28.110Z,11.05
2023-09-25T22:55:54.543Z,11.04
2023-09-25T22:58:23.352Z,11.02
2023-09-25T23:00:53.290Z,11.02
2023-09-25T23:03:20.280Z,11.00
2023-09-25T23:05:47.681Z,10.98
2023-09-25T23:08:16.589Z,11.00
2023-09-25T23:10:45.631Z,10.98
2023-09-25T23:13:12.182Z,10.98
2023-09-25T23:15:38.681Z,10.97
2023-09-25T23:18:05.470Z,10.96
2023-09-25T23:20:32.123Z,10.96
2023-09-25T23:22:58.588Z,10.95
2023-09-25T23:25:27.332Z,10.95
2023-09-25T23:27:56.650Z,10.93
2023-09-25T23:30:24.688Z,10.91
2023-09-25T23:32:52.289Z,10.90
2023-09-25T23:35:19.513Z,10.89
2023-09-25T23:37:50.444Z,10.90
2023-09-25T23:40:22.745Z,10.89
2023-09-25T23:42:50.249Z,10.89
2023-09-25T23:45:18.220Z,10.87
2023-09-25T23:47:49.389Z,10.86
2023-09-25T23:50:16.758Z,10.84
2023-09-25T23:52:45.742Z,10.89
2023-09-25T23:55:12.920Z,10.85
2023-09-25T23:57:40.623Z,10.84
